createdAt,value
2023-05-01T00:02:19.663Z,4.07
2023-05-01T00:05:10.828Z,4.04
2023-05-01T00:08:00.337Z,4.01
2023-05-01T00:10:48.611Z,3.97
2023-05-01T00:13:38.153Z,3.94
2023-05-01T00:16:27.125Z,3.91
2023-05-01T00:19:18.015Z,3.89
2023-05-01T00:22:07.402Z,3.89
2023-05-01T00:24:49.779Z,3.91
2023-05-01T00:27:38.919Z,3.90
2023-05-01T00:30:28.383Z,3.86
2023-05-01T00:33:20.634Z,3.84
2023-05-01T00:36:10.067Z,3.81
2023-05-01T00:39:00.961Z,3.82
2023-05-01T00:41:50.265Z,3.78
2023-05-01T00:44:39.430Z,3.70
2023-05-01T00:47:28.518Z,3.66
2023-05-01T00:50:19.265Z,3.63
2023-05-01T00:53:08.163Z,3.57
2023-05-01T00:55:58.172Z,3.52
2023-05-01T00:58:52.753Z,3.47
2023-05-01T01:01:42.169Z,3.44
2023-05-01T01:04:32.967Z,3.36
2023-05-01T01:07:33.378Z,3.33
2023-05-01T01:10:35.279Z,3.28
2023-05-01T01:13:32.352Z,3.27
2023-05-01T01:16:45.346Z,3.31
2023-05-01T01:20:10.405Z,3.36
2023-05-01T01:23:27.025Z,3.37
2023-05-01T01:26:31.598Z,3.41
2023-05-01T01:29:44.368Z,3.40
2023-05-01T01:33:04.128Z,3.45
2023-05-01T01:35:57.720Z,3.51
2023-05-01T01:38:54.220Z,3.51
2023-05-01T01:41:49.990Z,3.37
2023-05-01T01:44:42.119Z,3.17
2023-05-01T01:47:33.803Z,3.04
2023-05-01T01:50:26.764Z,3.00
2023-05-01T01:53:18.520Z,2.92
2023-05-01T01:56:09.503Z,2.71
2023-05-01T01:59:01.224Z,2.52
2023-05-01T02:01:34.995Z,2.40
2023-05-01T02:04:27.992Z,2.34
2023-05-01T02:07:19.712Z,2.33
2023-05-01T02:10:13.398Z,2.31
2023-05-01T02:13:03.199Z,2.27
2023-05-01T02:15:55.536Z,2.22
2023-05-01T02:18:47.273Z,2.22
2023-05-01T02:21:31.476Z,2.30
2023-05-01T02:24:23.489Z,2.41
2023-05-01T02:27:16.596Z,2.51
2023-05-01T02:30:09.581Z,2.56
2023-05-01T02:32:58.748Z,2.46
2023-05-01T02:35:48.997Z,2.37
2023-05-01T02:38:38.209Z,2.29
2023-05-01T02:41:28.158Z,2.25
2023-05-01T02:44:19.006Z,2.21
2023-05-01T02:47:12.419Z,2.22
2023-05-01T02:50:03.069Z,2.22
2023-05-01T02:52:54.184Z,2.10
2023-05-01T02:55:42.122Z,1.97
2023-05-01T02:58:32.717Z,1.84
2023-05-01T03:01:22.434Z,1.74
2023-05-01T03:04:11.442Z,1.65
2023-05-01T03:06:59.770Z,1.57
2023-05-01T03:09:48.680Z,1.52
2023-05-01T03:12:37.649Z,1.49
2023-05-01T03:15:26.984Z,1.48
2023-05-01T03:18:16.142Z,1.49
2023-05-01T03:21:05.606Z,1.47
2023-05-01T03:23:54.934Z,1.51
2023-05-01T03:26:43.109Z,1.59
2023-05-01T03:29:33.513Z,1.65
2023-05-01T03:32:23.083Z,1.80
2023-05-01T03:35:12.403Z,1.95
2023-05-01T03:38:01.858Z,1.99
2023-05-01T03:40:57.233Z,1.92
2023-05-01T03:43:44.786Z,1.91
2023-05-01T03:46:34.004Z,1.92
2023-05-01T03:49:23.095Z,1.97
2023-05-01T03:52:12.014Z,2.01
2023-05-01T03:55:01.547Z,1.94
2023-05-01T03:58:00.136Z,1.88
2023-05-01T04:00:50.709Z,1.89
2023-05-01T04:03:40.299Z,1.94
2023-05-01T04:06:30.259Z,2.05
2023-05-01T04:09:19.343Z,2.27
2023-05-01T04:12:07.699Z,2.66
2023-05-01T04:14:57.063Z,3.82
2023-05-01T04:17:48.019Z,4.88
2023-05-01T04:20:36.880Z,5.96
2023-05-01T04:23:25.861Z,7.15
2023-05-01T04:26:15.833Z,8.26
2023-05-01T04:29:05.233Z,9.39
2023-05-01T04:31:54.298Z,10.40
2023-05-01T04:34:43.842Z,11.17
2023-05-01T04:37:36.251Z,12.06
2023-05-01T04:40:28.290Z,13.05
2023-05-01T04:43:17.044Z,13.96
2023-05-01T04:46:06.472Z,14.87
2023-05-01T04:48:55.450Z,15.79
2023-05-01T04:51:45.371Z,16.70
2023-05-01T04:54:34.471Z,17.50
2023-05-01T04:57:24.013Z,18.21
2023-05-01T05:00:15.638Z,18.66
2023-05-01T05:03:05.003Z,18.78
2023-05-01T05:05:56.674Z,19.02
2023-05-01T05:08:46.132Z,19.15
2023-05-01T05:11:38.659Z,19.15
2023-05-01T05:14:28.161Z,19.32
2023-05-01T05:17:17.098Z,19.54
2023-05-01T05:20:09.549Z,19.81
2023-05-01T05:22:58.378Z,20.12
2023-05-01T05:25:47.438Z,20.46
2023-05-01T05:28:36.962Z,20.59
2023-05-01T05:31:29.619Z,20.65
2023-05-01T05:34:19.498Z,20.42
2023-05-01T05:37:08.615Z,20.25
2023-05-01T05:39:58.053Z,19.49
2023-05-01T05:42:48.225Z,18.69
2023-05-01T05:45:37.393Z,18.15
2023-05-01T05:48:29.018Z,17.42
2023-05-01T05:50:58.777Z,16.55
2023-05-01T05:53:47.874Z,15.62
2023-05-01T05:56:37.224Z,14.94
2023-05-01T05:59:26.927Z,14.81
2023-05-01T06:02:15.824Z,14.82
2023-05-01T06:05:06.121Z,14.17
2023-05-01T06:07:55.491Z,13.41
2023-05-01T06:10:45.811Z,12.83
2023-05-01T06:13:35.381Z,12.29
2023-05-01T06:16:26.019Z,11.85
2023-05-01T06:19:15.436Z,11.62
2023-05-01T06:22:06.619Z,11.28
2023-05-01T06:24:56.189Z,10.99
2023-05-01T06:27:46.246Z,10.82
2023-05-01T06:30:56.323Z,10.66
2023-05-01T06:33:45.878Z,10.59
2023-05-01T06:36:41.324Z,10.52
2023-05-01T06:39:29.155Z,10.61
2023-05-01T06:42:18.181Z,10.87
2023-05-01T06:45:07.764Z,11.59
2023-05-01T06:47:56.811Z,12.41
2023-05-01T06:50:46.024Z,13.03
2023-05-01T06:53:34.342Z,13.32
2023-05-01T06:56:23.461Z,13.18
2023-05-01T06:59:14.097Z,13.04
2023-05-01T07:02:03.352Z,13.01
2023-05-01T07:04:54.588Z,13.16
2023-05-01T07:07:50.513Z,13.18
2023-05-01T07:10:49.019Z,13.06
2023-05-01T07:13:38.274Z,13.00
2023-05-01T07:16:27.708Z,12.94
2023-05-01T07:19:17.267Z,12.94
2023-05-01T07:22:07.394Z,12.96
2023-05-01T07:24:56.894Z,13.10
2023-05-01T07:27:46.033Z,13.32
2023-05-01T07:30:30.668Z,13.43
2023-05-01T07:33:20.250Z,13.39
2023-05-01T07:36:09.855Z,13.33
2023-05-01T07:38:58.949Z,13.23
2023-05-01T07:41:48.487Z,13.13
2023-05-01T07:44:38.570Z,13.04
2023-05-01T07:47:29.582Z,12.95
2023-05-01T07:50:18.888Z,12.99
2023-05-01T07:53:08.884Z,13.11
2023-05-01T07:56:08.178Z,13.30
2023-05-01T07:58:57.552Z,13.36
2023-05-01T08:01:47.365Z,13.33
2023-05-01T08:04:37.128Z,13.25
2023-05-01T08:07:18.742Z,13.26
2023-05-01T08:10:09.825Z,13.22
2023-05-01T08:12:58.864Z,13.14
2023-05-01T08:15:48.872Z,13.14
2023-05-01T08:18:38.691Z,13.17
2023-05-01T08:21:29.120Z,13.17
2023-05-01T08:24:18.224Z,13.12
2023-05-01T08:27:08.808Z,13.13
2023-05-01T08:29:57.915Z,13.15
2023-05-01T08:32:48.204Z,13.27
2023-05-01T08:35:37.401Z,13.40
2023-05-01T08:38:29.026Z,13.58
2023-05-01T08:41:21.863Z,13.73
2023-05-01T08:44:15.909Z,13.92
2023-05-01T08:47:12.387Z,14.27
2023-05-01T08:50:03.437Z,14.42
2023-05-01T08:52:54.137Z,14.70
2023-05-01T08:55:46.773Z,15.05
2023-05-01T08:58:36.908Z,15.28
2023-05-01T09:01:29.140Z,15.57
2023-05-01T09:04:18.653Z,15.92
2023-05-01T09:07:09.160Z,16.21
2023-05-01T09:09:59.314Z,16.59
2023-05-01T09:12:54.343Z,17.08
2023-05-01T09:15:33.509Z,17.38
2023-05-01T09:18:23.608Z,17.48
2023-05-01T09:21:12.636Z,17.61
2023-05-01T09:24:02.967Z,17.81
2023-05-01T09:26:53.884Z,18.00
2023-05-01T09:29:45.009Z,18.27
2023-05-01T09:32:27.656Z,18.51
2023-05-01T09:35:17.698Z,18.71
2023-05-01T09:38:07.392Z,18.83
2023-05-01T09:41:04.922Z,18.91
2023-05-01T09:43:55.978Z,19.16
2023-05-01T09:46:45.593Z,19.31
2023-05-01T09:49:54.108Z,19.51
2023-05-01T09:52:52.080Z,19.68
2023-05-01T09:55:41.380Z,19.71
2023-05-01T09:58:31.751Z,19.81
2023-05-01T10:01:40.116Z,19.96
2023-05-01T10:04:33.334Z,20.21
2023-05-01T10:07:22.850Z,20.38
2023-05-01T10:10:19.514Z,20.26
2023-05-01T10:13:15.053Z,20.18
2023-05-01T10:16:06.942Z,20.09
2023-05-01T10:18:59.497Z,20.24
2023-05-01T10:21:48.973Z,20.38
2023-05-01T10:24:39.625Z,20.49
2023-05-01T10:27:30.211Z,20.63
2023-05-01T10:30:21.959Z,20.47
2023-05-01T10:33:13.873Z,20.47
2023-05-01T10:36:06.291Z,20.65
2023-05-01T10:38:48.995Z,20.67
2023-05-01T10:42:06.072Z,20.70
2023-05-01T10:45:29.741Z,20.74
2023-05-01T10:48:56.627Z,20.93
2023-05-01T10:52:03.490Z,20.94
2023-05-01T10:54:54.797Z,21.10
2023-05-01T10:57:45.631Z,21.32
2023-05-01T11:00:34.982Z,21.31
2023-05-01T11:03:39.613Z,21.47
2023-05-01T11:06:30.657Z,21.67
2023-05-01T11:09:40.447Z,21.74
2023-05-01T11:12:51.629Z,21.80
2023-05-01T11:15:41.432Z,21.82
2023-05-01T11:18:48.730Z,21.83
2023-05-01T11:21:41.326Z,21.85
2023-05-01T11:24:33.622Z,21.86
2023-05-01T11:27:24.233Z,21.94
2023-05-01T11:30:14.286Z,21.88
2023-05-01T11:33:05.519Z,21.82
2023-05-01T11:36:04.455Z,21.96
2023-05-01T11:38:56.346Z,22.16
2023-05-01T11:41:46.749Z,22.22
2023-05-01T11:44:37.241Z,22.16
2023-05-01T11:47:31.758Z,22.04
2023-05-01T11:50:21.459Z,22.03
2023-05-01T11:53:15.126Z,21.91
2023-05-01T11:56:26.043Z,21.85
2023-05-01T11:59:17.396Z,21.67
2023-05-01T12:02:19.475Z,21.51
2023-05-01T12:05:17.664Z,21.42
2023-05-01T12:08:18.277Z,21.30
2023-05-01T12:11:00.826Z,21.28
2023-05-01T12:13:51.173Z,21.34
2023-05-01T12:16:41.814Z,21.27
2023-05-01T12:19:31.734Z,21.23
2023-05-01T12:22:21.906Z,21.19
2023-05-01T12:25:12.339Z,21.11
2023-05-01T12:28:05.184Z,21.00
2023-05-01T12:31:05.398Z,21.07
2023-05-01T12:33:56.882Z,21.00
2023-05-01T12:36:53.967Z,20.81
2023-05-01T12:39:45.153Z,20.69
2023-05-01T12:42:34.136Z,20.60
2023-05-01T12:45:23.228Z,20.66
2023-05-01T12:48:14.377Z,20.71
2023-05-01T12:51:03.723Z,20.47
2023-05-01T12:53:57.125Z,20.20
2023-05-01T12:56:46.533Z,20.13
2023-05-01T12:59:37.318Z,20.16
2023-05-01T13:02:31.724Z,20.26
2023-05-01T13:05:20.883Z,20.33
2023-05-01T13:08:10.840Z,20.42
2023-05-01T13:11:03.386Z,20.49
2023-05-01T13:13:52.437Z,20.37
2023-05-01T13:16:46.421Z,20.22
2023-05-01T13:19:36.280Z,20.14
2023-05-01T13:22:33.815Z,20.03
2023-05-01T13:25:23.028Z,19.91
2023-05-01T13:28:20.586Z,19.81
2023-05-01T13:31:13.755Z,19.84
2023-05-01T13:34:05.292Z,19.83
2023-05-01T13:36:56.226Z,19.82
2023-05-01T13:39:46.554Z,19.87
2023-05-01T13:42:22.639Z,19.93
2023-05-01T13:45:13.142Z,20.00
2023-05-01T13:48:04.702Z,19.92
2023-05-01T13:50:55.026Z,19.83
2023-05-01T13:53:44.006Z,19.77
2023-05-01T13:56:35.448Z,19.74
2023-05-01T13:59:43.522Z,19.72
2023-05-01T14:02:32.789Z,19.59
2023-05-01T14:05:27.674Z,19.57
2023-05-01T14:08:20.593Z,19.53
2023-05-01T14:11:09.596Z,19.47
2023-05-01T14:14:03.633Z,19.35
2023-05-01T14:16:52.606Z,19.25
2023-05-01T14:19:41.884Z,19.21
2023-05-01T14:22:34.680Z,19.12
2023-05-01T14:25:24.600Z,19.03
2023-05-01T14:28:14.959Z,18.98
2023-05-01T14:31:04.416Z,18.95
2023-05-01T14:33:57.509Z,18.87
2023-05-01T14:36:46.778Z,18.77
2023-05-01T14:39:37.633Z,18.68
2023-05-01T14:42:29.623Z,18.63
2023-05-01T14:45:18.959Z,18.56
2023-05-01T14:48:10.439Z,18.51
2023-05-01T14:51:00.035Z,18.46
2023-05-01T14:53:51.280Z,18.40
2023-05-01T14:56:42.098Z,18.27
2023-05-01T14:59:31.392Z,18.20
2023-05-01T15:02:20.866Z,18.19
2023-05-01T15:05:10.586Z,18.19
2023-05-01T15:08:00.271Z,18.17
2023-05-01T15:10:49.486Z,18.09
2023-05-01T15:13:40.906Z,18.01
2023-05-01T15:16:33.931Z,17.94
2023-05-01T15:19:23.088Z,17.89
2023-05-01T15:22:12.567Z,17.85
2023-05-01T15:25:01.830Z,17.80
2023-05-01T15:27:51.656Z,17.76
2023-05-01T15:30:45.788Z,17.71
2023-05-01T15:33:35.124Z,17.60
2023-05-01T15:36:24.320Z,17.53
2023-05-01T15:39:15.492Z,17.52
2023-05-01T15:42:04.731Z,17.48
2023-05-01T15:44:55.111Z,17.44
2023-05-01T15:47:44.926Z,17.44
2023-05-01T15:50:34.180Z,17.42
2023-05-01T15:53:23.842Z,17.37
2023-05-01T15:56:13.176Z,17.32
2023-05-01T15:59:03.931Z,17.30
2023-05-01T16:01:55.810Z,17.29
2023-05-01T16:04:47.668Z,17.27
2023-05-01T16:07:35.868Z,17.26
2023-05-01T16:10:19.744Z,17.27
2023-05-01T16:13:09.892Z,17.25
2023-05-01T16:15:59.422Z,17.18
2023-05-01T16:18:54.818Z,17.13
2023-05-01T16:21:43.814Z,17.09
2023-05-01T16:24:33.881Z,17.06
2023-05-01T16:27:22.979Z,16.99
2023-05-01T16:30:14.949Z,16.93
2023-05-01T16:33:05.477Z,16.85
2023-05-01T16:35:59.712Z,16.77
2023-05-01T16:38:48.777Z,16.67
2023-05-01T16:41:45.070Z,16.59
2023-05-01T16:44:36.378Z,16.53
2023-05-01T16:47:15.973Z,16.47
2023-05-01T16:50:00.844Z,16.41
2023-05-01T16:52:51.988Z,16.35
2023-05-01T16:55:42.895Z,16.28
2023-05-01T16:58:32.376Z,16.22
2023-05-01T17:01:21.995Z,16.15
2023-05-01T17:04:14.410Z,16.07
2023-05-01T17:07:03.461Z,15.98
2023-05-01T17:09:52.977Z,15.88
2023-05-01T17:12:42.167Z,15.78
2023-05-01T17:15:25.023Z,15.70
2023-05-01T17:18:12.964Z,15.61
2023-05-01T17:21:02.705Z,15.50
2023-05-01T17:23:54.185Z,15.41
2023-05-01T17:26:43.663Z,15.33
2023-05-01T17:29:33.038Z,15.23
2023-05-01T17:32:25.822Z,15.16
2023-05-01T17:35:22.822Z,15.06
2023-05-01T17:38:12.094Z,14.96
2023-05-01T17:41:01.316Z,14.84
2023-05-01T17:43:50.614Z,14.75
2023-05-01T17:46:40.560Z,14.66
2023-05-01T17:49:30.382Z,14.55
2023-05-01T17:52:19.640Z,14.44
2023-05-01T17:55:11.359Z,14.33
2023-05-01T17:57:55.218Z,14.24
2023-05-01T18:00:44.112Z,14.15
2023-05-01T18:03:33.820Z,14.06
2023-05-01T18:06:23.900Z,13.96
2023-05-01T18:09:13.351Z,13.87
2023-05-01T18:12:03.508Z,13.78
2023-05-01T18:14:53.490Z,13.67
2023-05-01T18:17:42.638Z,13.56
2023-05-01T18:20:31.774Z,13.46
2023-05-01T18:23:21.253Z,13.37
2023-05-01T18:26:10.588Z,13.28
2023-05-01T18:29:00.260Z,13.16
2023-05-01T18:31:50.630Z,13.06
2023-05-01T18:34:42.207Z,12.94
2023-05-01T18:37:31.477Z,12.85
2023-05-01T18:40:21.115Z,12.79
2023-05-01T18:43:11.723Z,12.72
2023-05-01T18:46:01.242Z,12.66
2023-05-01T18:48:50.944Z,12.62
2023-05-01T18:51:41.316Z,12.56
2023-05-01T18:54:31.196Z,12.52
2023-05-01T18:57:22.303Z,12.45
2023-05-01T19:00:15.566Z,12.36
2023-05-01T19:03:05.206Z,12.27
2023-05-01T19:05:57.337Z,12.19
2023-05-01T19:08:47.222Z,12.12
2023-05-01T19:11:37.160Z,12.05
2023-05-01T19:14:26.682Z,11.96
2023-05-01T19:17:16.293Z,11.89
2023-05-01T19:20:08.146Z,11.79
2023-05-01T19:22:57.905Z,11.71
2023-05-01T19:25:47.681Z,11.64
2023-05-01T19:28:38.538Z,11.57
2023-05-01T19:31:28.321Z,11.49
2023-05-01T19:34:18.480Z,11.43
2023-05-01T19:37:08.078Z,11.37
2023-05-01T19:40:01.658Z,11.32
2023-05-01T19:42:52.157Z,11.28
2023-05-01T19:45:35.761Z,11.25
2023-05-01T19:48:25.334Z,11.23
2023-05-01T19:51:14.814Z,11.17
2023-05-01T19:54:05.067Z,11.12
2023-05-01T19:56:55.490Z,11.05
2023-05-01T19:59:46.093Z,11.00
2023-05-01T20:02:35.429Z,10.95
2023-05-01T20:05:27.720Z,10.88
2023-05-01T20:08:16.251Z,10.83
2023-05-01T20:11:07.028Z,10.77
2023-05-01T20:13:59.105Z,10.73
2023-05-01T20:16:42.461Z,10.68
2023-05-01T20:19:31.811Z,10.64
2023-05-01T20:22:21.599Z,10.58
2023-05-01T20:25:11.736Z,10.54
2023-05-01T20:28:02.856Z,10.48
2023-05-01T20:30:56.562Z,10.42
2023-05-01T20:33:46.832Z,10.35
2023-05-01T20:36:37.224Z,10.27
2023-05-01T20:39:38.099Z,10.22
2023-05-01T20:42:20.869Z,10.15
2023-05-01T20:45:11.214Z,10.07
2023-05-01T20:48:01.848Z,10.03
2023-05-01T20:50:54.166Z,9.97
2023-05-01T20:53:43.277Z,9.93
2023-05-01T20:56:34.031Z,9.88
2023-05-01T20:59:21.610Z,9.86
2023-05-01T21:02:11.692Z,9.82
2023-05-01T21:05:01.618Z,9.79
2023-05-01T21:07:53.544Z,9.79
2023-05-01T21:10:32.563Z,9.75
2023-05-01T21:13:24.314Z,9.67
2023-05-01T21:16:16.434Z,9.57
2023-05-01T21:19:06.441Z,9.46
2023-05-01T21:21:56.392Z,9.33
2023-05-01T21:24:44.827Z,9.17
2023-05-01T21:27:41.166Z,8.99
2023-05-01T21:30:33.020Z,8.85
2023-05-01T21:33:33.669Z,8.76
2023-05-01T21:36:23.514Z,8.67
2023-05-01T21:39:13.205Z,8.61
2023-05-01T21:42:04.720Z,8.56
2023-05-01T21:44:55.007Z,8.53
2023-05-01T21:47:47.032Z,8.49
2023-05-01T21:50:38.135Z,8.48
2023-05-01T21:53:29.474Z,8.47
2023-05-01T21:56:22.317Z,8.46
2023-05-01T21:59:13.006Z,8.44
2023-05-01T22:02:09.670Z,8.42
2023-05-01T22:04:58.942Z,8.41
2023-05-01T22:07:48.706Z,8.40
2023-05-01T22:10:40.250Z,8.40
2023-05-01T22:13:32.922Z,8.41
2023-05-01T22:16:15.423Z,8.44
2023-05-01T22:19:05.935Z,8.46
2023-05-01T22:21:56.381Z,8.47
2023-05-01T22:24:45.593Z,8.48
2023-05-01T22:27:38.255Z,8.49
2023-05-01T22:30:29.073Z,8.51
2023-05-01T22:33:18.665Z,8.52
2023-05-01T22:36:08.074Z,8.54
2023-05-01T22:38:58.374Z,8.55
2023-05-01T22:41:48.363Z,8.56
2023-05-01T22:44:37.544Z,8.56
2023-05-01T22:47:36.893Z,8.56
2023-05-01T22:50:28.691Z,8.56
2023-05-01T22:53:17.764Z,8.53
2023-05-01T22:56:10.956Z,8.51
2023-05-01T22:59:00.279Z,8.48
2023-05-01T23:01:49.656Z,8.46
2023-05-01T23:04:39.272Z,8.43
2023-05-01T23:07:31.371Z,8.41
2023-05-01T23:10:24.017Z,8.38
2023-05-01T23:13:18.878Z,8.34
2023-05-01T23:16:08.489Z,8.30
2023-05-01T23:18:58.338Z,8.25
2023-05-01T23:21:51.014Z,8.22
2023-05-01T23:24:43.556Z,8.18
2023-05-01T23:27:14.152Z,8.15
2023-05-01T23:30:07.240Z,8.11
2023-05-01T23:32:58.676Z,8.08
2023-05-01T23:35:48.658Z,8.06
2023-05-01T23:38:38.034Z,8.02
2023-05-01T23:41:30.314Z,8.00
2023-05-01T23:44:12.071Z,7.98
2023-05-01T23:47:01.236Z,7.98
2023-05-01T23:49:50.820Z,7.96
2023-05-01T23:52:40.647Z,7.92
2023-05-01T23:55:31.180Z,7.89
2023-05-01T23:58:20.923Z,7.85
